Terminal Aerodrome Forecast
Issued by NWS

Home | Current Version | Previous Version | Text Only | Print | Product List | Glossary On
Versions: 1 2 3 4 5 6 7 8 9 10 11 12 13 14 15 16 17 18 19
000
FTUS45 KGJT 270538
TAFASE
TAF
KASE 270538Z 2706/2806 35005KT P6SM -SHRA SCT017 OVC030
     FM270700 21005KT P6SM SCT030 BKN120
     FM271900 32008KT P6SM VCSH SCT060 BKN120
     FM280300 21005KT P6SM SCT060 BKN120=

USA.gov is the U.S. government's official web portal to all federal, state and local government web resources and services.